createdAt,value
2018-10-05T00:01:34.375Z,17.13
2018-10-05T00:04:02.645Z,15.83
2018-10-05T00:06:30.928Z,17.80
2018-10-05T00:08:59.144Z,18.27
2018-10-05T00:11:27.383Z,18.57
2018-10-05T00:13:55.619Z,17.73
2018-10-05T00:16:23.943Z,16.70
2018-10-05T00:18:52.167Z,15.20
2018-10-05T00:21:20.428Z,17.67
2018-10-05T00:23:48.655Z,17.97
2018-10-05T00:26:16.876Z,17.13
2018-10-05T00:28:45.189Z,18.13
2018-10-05T00:31:13.437Z,17.40
2018-10-05T00:33:41.658Z,18.03
2018-10-05T00:36:09.898Z,16.83
2018-10-05T00:38:38.144Z,17.47
2018-10-05T00:41:06.403Z,16.77
2018-10-05T00:43:34.761Z,18.00
2018-10-05T00:46:02.975Z,16.27
2018-10-05T00:48:31.312Z,18.00
2018-10-05T00:50:59.567Z,17.00
2018-10-05T00:53:28.632Z,16.27
2018-10-05T00:55:57.753Z,15.73
2018-10-05T00:58:25.972Z,16.60
2018-10-05T01:00:54.311Z,14.73
2018-10-05T01:03:22.530Z,14.83
2018-10-05T01:05:50.771Z,16.33
2018-10-05T01:08:18.992Z,15.40
2018-10-05T01:10:47.243Z,16.40
2018-10-05T01:13:15.461Z,14.83
2018-10-05T01:15:44.001Z,15.30
2018-10-05T01:18:12.214Z,14.93
2018-10-05T01:20:40.473Z,13.90
2018-10-05T01:23:08.720Z,13.40
2018-10-05T01:25:37.006Z,14.73
2018-10-05T01:28:05.267Z,13.67
2018-10-05T01:30:33.491Z,15.50
2018-10-05T01:33:01.750Z,14.37
2018-10-05T01:35:30.099Z,15.47
2018-10-05T01:37:58.375Z,13.40
2018-10-05T01:40:26.591Z,13.60
2018-10-05T01:42:54.807Z,14.20
2018-10-05T01:45:23.055Z,12.47
2018-10-05T01:47:51.348Z,13.33
2018-10-05T01:50:19.607Z,12.53
2018-10-05T01:52:47.855Z,12.93
2018-10-05T01:55:16.183Z,13.40
2018-10-05T01:57:44.531Z,13.90
2018-10-05T02:00:12.757Z,12.33
2018-10-05T02:02:41.034Z,12.63
2018-10-05T02:05:09.592Z,13.57
2018-10-05T02:07:37.939Z,14.70
2018-10-05T02:10:06.175Z,13.13
2018-10-05T02:12:34.419Z,12.37
2018-10-05T02:15:02.691Z,12.67
2018-10-05T02:17:30.888Z,14.83
2018-10-05T02:19:59.301Z,12.07
2018-10-05T02:22:27.587Z,12.23
2018-10-05T02:24:55.803Z,12.33
2018-10-05T02:27:24.059Z,13.60
2018-10-05T02:29:52.300Z,11.97
2018-10-05T02:32:20.541Z,12.63
2018-10-05T02:34:48.834Z,12.90
2018-10-05T02:37:17.103Z,12.60
2018-10-05T02:39:45.351Z,12.77
2018-10-05T02:42:13.713Z,12.17
2018-10-05T02:44:41.943Z,12.27
2018-10-05T02:47:10.200Z,13.37
2018-10-05T02:49:38.442Z,12.30
2018-10-05T02:52:06.734Z,13.37
2018-10-05T02:54:34.932Z,13.23
2018-10-05T02:57:03.195Z,12.43
2018-10-05T02:59:31.403Z,10.93
2018-10-05T03:02:10.953Z,13.00
2018-10-05T03:04:39.188Z,11.90
2018-10-05T03:07:07.437Z,11.70
2018-10-05T03:09:35.650Z,11.83
2018-10-05T03:12:03.883Z,11.43
2018-10-05T03:14:32.507Z,11.90
2018-10-05T03:17:00.779Z,10.87
2018-10-05T03:19:29.092Z,12.50
2018-10-05T03:21:57.311Z,11.03
2018-10-05T03:24:25.703Z,12.10
2018-10-05T03:26:53.960Z,12.07
2018-10-05T03:29:22.198Z,11.47
2018-10-05T03:31:50.421Z,11.40
2018-10-05T03:34:18.646Z,11.03
2018-10-05T03:36:46.887Z,11.73
2018-10-05T03:39:15.623Z,11.25
2018-10-05T03:41:43.835Z,11.13
2018-10-05T03:44:12.104Z,10.53
2018-10-05T03:46:40.363Z,9.20
2018-10-05T03:49:08.624Z,10.77
2018-10-05T03:51:36.886Z,10.47
2018-10-05T03:54:05.287Z,9.80
2018-10-05T03:56:33.544Z,10.37
2018-10-05T03:59:01.770Z,10.50
2018-10-05T04:01:30.120Z,11.10
2018-10-05T04:03:58.433Z,10.53
2018-10-05T04:06:26.750Z,10.27
2018-10-05T04:08:54.988Z,11.53
2018-10-05T04:11:23.218Z,10.60
2018-10-05T04:13:51.407Z,9.77
2018-10-05T04:16:19.776Z,11.20
2018-10-05T04:18:48.015Z,10.17
2018-10-05T04:21:16.247Z,9.53
2018-10-05T04:23:44.530Z,10.80
2018-10-05T04:26:12.740Z,9.43
2018-10-05T04:28:41.006Z,9.57
2018-10-05T04:31:09.231Z,10.53
2018-10-05T04:33:37.613Z,9.77
2018-10-05T04:36:05.836Z,10.27
2018-10-05T04:38:34.171Z,9.60
2018-10-05T04:41:02.444Z,9.67
2018-10-05T04:43:30.648Z,10.50
2018-10-05T04:45:58.845Z,9.83
2018-10-05T04:48:27.059Z,10.60
2018-10-05T04:50:55.322Z,10.57
2018-10-05T04:53:23.667Z,8.20
2018-10-05T04:55:51.907Z,10.20
2018-10-05T04:58:20.131Z,10.90
2018-10-05T05:00:49.317Z,9.80
2018-10-05T05:03:17.528Z,11.47
2018-10-05T05:05:45.772Z,8.10
2018-10-05T05:08:13.980Z,9.43
2018-10-05T05:10:42.226Z,10.70
2018-10-05T05:13:10.436Z,9.97
2018-10-05T05:15:38.743Z,10.07
2018-10-05T05:18:07.059Z,9.33
2018-10-05T05:20:35.315Z,9.57
2018-10-05T05:23:04.088Z,10.00
2018-10-05T05:25:32.552Z,8.67
2018-10-05T05:28:00.816Z,10.00
2018-10-05T05:30:29.055Z,9.73
2018-10-05T05:32:57.299Z,8.80
2018-10-05T05:35:25.981Z,9.57
2018-10-05T05:37:54.375Z,9.77
2018-10-05T05:40:22.724Z,10.30
2018-10-05T05:42:50.911Z,9.97
2018-10-05T05:45:19.304Z,10.00
2018-10-05T05:47:47.596Z,9.53
2018-10-05T05:50:15.911Z,8.30
2018-10-05T05:52:44.143Z,8.40
2018-10-05T05:55:12.395Z,11.17
2018-10-05T05:57:40.631Z,11.77
2018-10-05T06:00:08.892Z,9.63
2018-10-05T06:02:37.312Z,10.63
2018-10-05T06:05:05.639Z,9.40
2018-10-05T06:07:33.873Z,11.40
2018-10-05T06:10:02.110Z,9.77
2018-10-05T06:12:30.361Z,9.90
2018-10-05T06:14:58.742Z,9.37
2018-10-05T06:17:27.026Z,10.00
2018-10-05T06:19:55.261Z,11.20
2018-10-05T06:22:23.666Z,11.13
2018-10-05T06:24:51.755Z,10.30
2018-10-05T06:27:20.067Z,10.83
2018-10-05T06:29:48.578Z,11.07
2018-10-05T06:32:16.802Z,11.60
2018-10-05T06:34:45.014Z,9.83
2018-10-05T06:37:13.248Z,11.17
2018-10-05T06:39:41.657Z,11.10
2018-10-05T06:42:10.010Z,10.23
2018-10-05T06:44:38.330Z,10.13
2018-10-05T06:47:06.565Z,10.60
2018-10-05T06:49:34.804Z,10.17
2018-10-05T06:52:02.999Z,9.87
2018-10-05T06:54:31.289Z,10.70
2018-10-05T06:56:59.543Z,9.50
2018-10-05T06:59:28.216Z,10.20
2018-10-05T07:01:56.917Z,10.33
2018-10-05T07:04:25.372Z,10.20
2018-10-05T07:06:54.081Z,11.13
2018-10-05T07:09:22.768Z,10.80
2018-10-05T07:11:51.148Z,9.80
2018-10-05T07:14:20.191Z,10.10
2018-10-05T07:16:48.893Z,8.40
2018-10-05T07:19:17.307Z,10.20
2018-10-05T07:21:46.614Z,10.23
2018-10-05T07:24:15.802Z,10.80
2018-10-05T07:26:44.874Z,10.90
2018-10-05T07:29:13.894Z,9.50
2018-10-05T07:31:42.142Z,9.70
2018-10-05T07:34:10.371Z,11.00
2018-10-05T07:36:38.691Z,10.40
2018-10-05T07:39:07.940Z,9.90
2018-10-05T07:41:36.151Z,10.43
2018-10-05T07:44:04.486Z,11.17
2018-10-05T07:46:32.711Z,10.57
2018-10-05T07:49:00.970Z,10.83
2018-10-05T07:51:29.305Z,12.33
2018-10-05T07:53:57.603Z,11.60
2018-10-05T07:56:25.879Z,10.50
2018-10-05T07:58:54.175Z,10.27
2018-10-05T08:01:22.436Z,11.93
2018-10-05T08:03:50.802Z,11.87
2018-10-05T08:06:19.019Z,12.63
2018-10-05T08:08:47.233Z,10.50
2018-10-05T08:11:15.475Z,11.83
2018-10-05T08:13:43.803Z,10.57
2018-10-05T08:16:12.021Z,9.90
2018-10-05T08:18:40.275Z,11.03
2018-10-05T08:21:08.526Z,11.90
2018-10-05T08:23:36.848Z,12.13
2018-10-05T08:26:05.095Z,12.10
2018-10-05T08:28:33.347Z,12.40
2018-10-05T08:31:01.672Z,11.80
2018-10-05T08:33:29.896Z,12.40
2018-10-05T08:35:58.184Z,12.27
2018-10-05T08:38:26.399Z,13.43
2018-10-05T08:40:54.647Z,12.27
2018-10-05T08:43:23.127Z,11.77
2018-10-05T08:45:51.373Z,13.03
2018-10-05T08:48:19.606Z,12.17
2018-10-05T08:50:47.863Z,11.20
2018-10-05T08:53:16.701Z,12.10
2018-10-05T08:55:45.378Z,12.37
2018-10-05T08:58:13.590Z,12.00
2018-10-05T09:00:41.889Z,12.60
2018-10-05T09:03:10.106Z,13.40
2018-10-05T09:05:38.433Z,11.30
2018-10-05T09:08:06.635Z,12.23
2018-10-05T09:10:34.917Z,13.37
2018-10-05T09:13:03.173Z,12.63
2018-10-05T09:15:32.315Z,13.00
2018-10-05T09:18:00.660Z,14.30
2018-10-05T09:20:28.870Z,12.80
2018-10-05T09:22:57.135Z,14.17
2018-10-05T09:25:25.351Z,10.77
2018-10-05T09:27:53.611Z,12.97
2018-10-05T09:30:21.879Z,13.10
2018-10-05T09:32:50.140Z,13.60
2018-10-05T09:35:18.556Z,12.60
2018-10-05T09:37:46.813Z,13.10
2018-10-05T09:40:15.381Z,12.73
2018-10-05T09:42:43.865Z,12.37
2018-10-05T09:45:12.196Z,11.20
2018-10-05T09:47:40.495Z,13.93
2018-10-05T09:50:08.774Z,11.50
2018-10-05T09:52:37.044Z,13.23
2018-10-05T09:55:05.407Z,11.57
2018-10-05T09:57:33.741Z,10.43
2018-10-05T10:00:02.118Z,11.43
2018-10-05T10:02:35.558Z,12.10
2018-10-05T10:05:04.080Z,12.40
2018-10-05T10:07:32.343Z,12.30
2018-10-05T10:10:00.817Z,12.03
2018-10-05T10:12:29.051Z,11.80
2018-10-05T10:14:57.300Z,12.00
2018-10-05T10:17:25.561Z,10.97
2018-10-05T10:19:53.775Z,10.43
2018-10-05T10:22:22.417Z,10.80
2018-10-05T10:24:50.626Z,10.60
2018-10-05T10:27:18.887Z,10.40
2018-10-05T10:29:47.150Z,11.67
2018-10-05T10:32:15.382Z,11.30
2018-10-05T10:34:44.099Z,10.27
2018-10-05T10:37:12.298Z,12.00
2018-10-05T10:39:40.541Z,10.73
2018-10-05T10:42:08.793Z,11.27
2018-10-05T10:44:37.038Z,11.03
2018-10-05T10:47:05.499Z,10.47
2018-10-05T10:49:33.764Z,10.10
2018-10-05T10:52:02.000Z,10.20
2018-10-05T10:54:30.311Z,11.43
2018-10-05T10:56:58.580Z,9.40
2018-10-05T10:59:27.004Z,10.80
2018-10-05T11:01:55.268Z,10.50
2018-10-05T11:04:23.680Z,8.43
2018-10-05T11:06:51.905Z,8.13
2018-10-05T11:09:20.151Z,7.00
2018-10-05T11:11:48.565Z,8.67
2018-10-05T11:14:16.803Z,9.30
2018-10-05T11:16:45.028Z,9.97
2018-10-05T11:19:13.226Z,8.83
2018-10-05T11:21:41.471Z,6.83
2018-10-05T11:24:09.920Z,7.53
2018-10-05T11:26:38.166Z,8.37
2018-10-05T11:29:06.400Z,7.60
2018-10-05T11:31:34.659Z,8.60
2018-10-05T11:34:03.011Z,7.93
2018-10-05T11:36:31.308Z,7.80
2018-10-05T11:38:59.577Z,7.40
2018-10-05T11:41:27.873Z,8.27
2018-10-05T11:43:56.106Z,7.87
2018-10-05T11:46:24.428Z,8.30
2018-10-05T11:48:52.597Z,7.40
2018-10-05T11:51:20.828Z,7.80
2018-10-05T11:53:49.280Z,8.30
2018-10-05T11:56:17.529Z,8.50
2018-10-05T11:58:45.792Z,7.23
2018-10-05T12:01:14.024Z,7.43
2018-10-05T12:03:42.335Z,7.33
2018-10-05T12:06:10.572Z,6.50
2018-10-05T12:08:38.840Z,7.00
2018-10-05T12:11:07.319Z,7.70
2018-10-05T12:13:35.607Z,6.03
2018-10-05T12:16:03.826Z,6.80
2018-10-05T12:18:32.090Z,6.53
2018-10-05T12:21:00.365Z,5.97
2018-10-05T12:23:28.665Z,6.87
2018-10-05T12:25:56.903Z,6.10
2018-10-05T12:28:25.124Z,6.80
2018-10-05T12:30:53.372Z,5.67
2018-10-05T12:33:21.711Z,6.10
2018-10-05T12:35:50.140Z,5.50
2018-10-05T12:38:18.383Z,6.40
2018-10-05T12:40:53.074Z,5.17
2018-10-05T12:43:21.306Z,5.60
2018-10-05T12:45:49.632Z,4.93
2018-10-05T12:48:17.854Z,5.07
2018-10-05T12:50:46.143Z,4.33
2018-10-05T12:53:14.456Z,5.60
2018-10-05T12:55:42.733Z,4.73
2018-10-05T12:58:11.006Z,4.00
2018-10-05T13:00:39.473Z,4.73
2018-10-05T13:03:07.736Z,4.53
2018-10-05T13:05:36.032Z,4.07
2018-10-05T13:08:04.300Z,4.20
2018-10-05T13:10:32.541Z,3.33
2018-10-05T13:13:00.813Z,3.87
2018-10-05T13:15:29.139Z,3.80
2018-10-05T13:17:57.452Z,3.40
2018-10-05T13:20:25.743Z,3.00
2018-10-05T13:22:54.005Z,3.83
2018-10-05T13:25:22.459Z,2.90
2018-10-05T13:27:50.724Z,3.50
2018-10-05T13:30:19.191Z,2.47
2018-10-05T13:32:47.398Z,2.47
2018-10-05T13:35:15.667Z,2.90
2018-10-05T13:37:43.915Z,2.33
2018-10-05T13:40:12.167Z,2.53
2018-10-05T13:42:40.772Z,2.50
2018-10-05T13:45:08.994Z,1.90
2018-10-05T13:47:37.248Z,1.70
2018-10-05T13:50:06.287Z,2.10
2018-10-05T13:52:34.599Z,2.30
2018-10-05T13:55:03.009Z,1.83
2018-10-05T13:57:31.223Z,2.50
2018-10-05T13:59:59.495Z,1.67
2018-10-05T14:02:27.746Z,1.93
2018-10-05T14:04:56.006Z,1.70
2018-10-05T14:07:24.588Z,1.47
2018-10-05T14:09:52.835Z,1.63
2018-10-05T14:12:21.079Z,1.20
2018-10-05T14:14:49.331Z,2.00
2018-10-05T14:17:17.568Z,2.10
2018-10-05T14:19:45.816Z,1.70
2018-10-05T14:22:14.093Z,1.80
2018-10-05T14:24:42.592Z,1.40
2018-10-05T14:27:10.821Z,1.23
2018-10-05T14:29:39.047Z,1.60
2018-10-05T14:32:07.347Z,1.60
2018-10-05T14:34:35.615Z,1.77
2018-10-05T14:37:03.853Z,1.33
2018-10-05T14:39:32.127Z,1.40
2018-10-05T14:42:00.347Z,1.93
2018-10-05T14:44:28.554Z,1.67
2018-10-05T14:46:56.825Z,2.70
2018-10-05T14:49:25.085Z,1.30
2018-10-05T14:51:53.299Z,1.57
2018-10-05T14:54:21.659Z,1.27
2018-10-05T14:56:49.925Z,1.50
2018-10-05T14:59:18.419Z,1.33
2018-10-05T15:01:46.671Z,1.80
2018-10-05T15:04:14.875Z,1.37
2018-10-05T15:06:43.205Z,2.13
2018-10-05T15:09:11.412Z,1.50
2018-10-05T15:11:39.627Z,1.50
2018-10-05T15:14:07.892Z,1.70
2018-10-05T15:16:36.095Z,1.50
2018-10-05T15:19:04.385Z,2.00
2018-10-05T15:21:32.682Z,1.67
2018-10-05T15:24:00.970Z,1.67
2018-10-05T15:26:29.329Z,1.50
2018-10-05T15:28:58.419Z,1.43
2018-10-05T15:31:26.659Z,1.50
2018-10-05T15:33:54.857Z,1.40
2018-10-05T15:36:23.107Z,2.03
2018-10-05T15:38:51.454Z,1.10
2018-10-05T15:41:19.632Z,1.20
2018-10-05T15:43:47.873Z,1.30
2018-10-05T15:47:18.907Z,1.43
2018-10-05T15:49:47.307Z,1.40
2018-10-05T15:52:15.535Z,1.47
2018-10-05T15:54:43.742Z,1.43
2018-10-05T15:57:11.955Z,1.70
2018-10-05T15:59:40.227Z,1.90
2018-10-05T16:02:08.438Z,1.77
2018-10-05T16:04:36.731Z,1.30
2018-10-05T16:07:04.966Z,1.90
2018-10-05T16:09:33.284Z,1.00
2018-10-05T16:12:01.533Z,1.90
2018-10-05T16:14:29.816Z,1.40
2018-10-05T16:16:58.056Z,2.07
2018-10-05T16:19:26.428Z,2.20
2018-10-05T16:21:54.711Z,1.97
2018-10-05T16:24:35.515Z,1.40
2018-10-05T16:27:03.679Z,1.20
2018-10-05T16:29:31.931Z,1.53
2018-10-05T16:32:00.208Z,1.93
2018-10-05T16:34:28.523Z,2.10
2018-10-05T16:36:56.734Z,1.60
2018-10-05T16:39:25.043Z,1.90
2018-10-05T16:41:53.290Z,2.40
2018-10-05T16:44:21.569Z,2.13
2018-10-05T16:46:49.911Z,2.60
2018-10-05T16:49:18.130Z,3.10
2018-10-05T16:51:46.426Z,2.93
2018-10-05T16:54:14.650Z,3.63
2018-10-05T16:56:42.918Z,3.20
2018-10-05T16:59:11.155Z,3.57
2018-10-05T17:01:39.436Z,3.70
2018-10-05T17:04:07.960Z,4.63
2018-10-05T17:06:36.233Z,5.40
2018-10-05T17:09:07.550Z,6.07
2018-10-05T17:11:37.411Z,6.57
2018-10-05T17:14:05.741Z,6.13
2018-10-05T17:16:33.968Z,6.43
2018-10-05T17:19:02.698Z,33.77
2018-10-05T17:21:33.101Z,7.60
2018-10-05T17:24:02.011Z,9.00
2018-10-05T17:26:30.245Z,134.20
2018-10-05T17:28:58.496Z,177.70
2018-10-05T17:31:26.752Z,42.83
2018-10-05T17:33:55.080Z,12.67
2018-10-05T17:36:23.347Z,10.73
2018-10-05T17:38:51.619Z,11.00
2018-10-05T17:41:19.865Z,9.10
2018-10-05T17:43:48.227Z,7.20
2018-10-05T17:46:16.479Z,6.90
2018-10-05T17:48:44.715Z,5.60
2018-10-05T17:51:12.950Z,5.60
2018-10-05T17:53:41.212Z,4.80
2018-10-05T17:56:09.595Z,5.00
2018-10-05T17:58:38.677Z,4.27
2018-10-05T18:01:07.203Z,5.20
2018-10-05T18:03:35.539Z,4.07
2018-10-05T18:06:03.811Z,4.03
2018-10-05T18:08:32.172Z,4.03
2018-10-05T18:11:00.271Z,4.80
2018-10-05T18:13:28.510Z,4.80
2018-10-05T18:15:56.816Z,7.20
2018-10-05T18:18:25.063Z,6.63
2018-10-05T18:20:53.267Z,6.40
2018-10-05T18:23:21.547Z,6.07
2018-10-05T18:25:49.764Z,6.67
2018-10-05T18:28:17.978Z,6.73
2018-10-05T18:30:46.244Z,6.57
2018-10-05T18:33:14.561Z,6.17
2018-10-05T18:35:42.849Z,5.80
2018-10-05T18:38:11.154Z,9.10
2018-10-05T18:40:39.398Z,8.93
2018-10-05T18:43:07.644Z,9.40
2018-10-05T18:45:35.905Z,10.13
2018-10-05T18:48:04.131Z,7.23
2018-10-05T18:50:32.381Z,7.13
2018-10-05T18:53:00.808Z,9.13
2018-10-05T18:55:29.453Z,13.33
2018-10-05T18:57:57.763Z,13.37
2018-10-05T19:00:26.017Z,11.07
2018-10-05T19:02:54.231Z,10.67
2018-10-05T19:05:23.017Z,9.87
2018-10-05T19:07:51.270Z,8.43
2018-10-05T19:10:20.080Z,8.93
2018-10-05T19:12:49.178Z,10.10
2018-10-05T19:15:17.443Z,9.33
2018-10-05T19:17:45.715Z,10.10
2018-10-05T19:20:14.586Z,10.30
2018-10-05T19:22:43.328Z,9.90
2018-10-05T19:25:11.640Z,7.10
2018-10-05T19:27:40.121Z,7.93
2018-10-05T19:30:08.433Z,6.90
2018-10-05T19:32:36.955Z,7.43
2018-10-05T19:35:05.583Z,6.30
2018-10-05T19:37:34.215Z,5.53
2018-10-05T19:40:02.482Z,5.17
2018-10-05T19:42:30.780Z,4.70
2018-10-05T19:44:59.350Z,5.07
2018-10-05T19:47:27.914Z,4.27
2018-10-05T19:49:56.222Z,4.97
2018-10-05T19:52:24.483Z,5.70
2018-10-05T19:54:52.965Z,7.73
2018-10-05T19:57:21.437Z,6.00
2018-10-05T19:59:49.747Z,5.97
2018-10-05T20:02:18.159Z,7.40
2018-10-05T20:04:46.424Z,6.87
2018-10-05T20:07:14.879Z,6.20
2018-10-05T20:09:43.162Z,7.30
2018-10-05T20:12:11.848Z,7.70
2018-10-05T20:14:40.305Z,8.50
2018-10-05T20:17:08.856Z,9.70
2018-10-05T20:19:37.528Z,9.53
2018-10-05T20:22:08.398Z,9.00
2018-10-05T20:24:36.656Z,10.10
2018-10-05T20:27:05.190Z,9.30
2018-10-05T20:29:33.708Z,9.47
2018-10-05T20:32:02.300Z,9.83
2018-10-05T20:34:30.685Z,9.40
2018-10-05T20:36:59.262Z,7.83
2018-10-05T20:39:27.514Z,8.63
2018-10-05T20:41:56.236Z,9.50
2018-10-05T20:44:24.615Z,8.67
2018-10-05T20:46:53.114Z,7.80
2018-10-05T20:49:21.623Z,7.77
2018-10-05T20:51:50.370Z,8.20
2018-10-05T20:54:18.825Z,8.23
2018-10-05T20:56:47.898Z,15.53
2018-10-05T20:59:16.138Z,15.03
2018-10-05T21:01:44.970Z,13.07
2018-10-05T21:04:13.404Z,12.03
2018-10-05T21:06:41.819Z,16.30
2018-10-05T21:09:11.174Z,13.60
2018-10-05T21:11:39.688Z,12.43
2018-10-05T21:14:08.402Z,12.00
2018-10-05T21:16:36.719Z,12.63
2018-10-05T21:19:05.227Z,10.60
2018-10-05T21:21:33.551Z,12.17
2018-10-05T21:24:01.807Z,12.60
2018-10-05T21:26:30.032Z,10.60
2018-10-05T21:28:58.365Z,8.80
2018-10-05T21:31:26.635Z,9.73
2018-10-05T21:33:55.081Z,9.90
2018-10-05T21:36:23.336Z,9.63
2018-10-05T21:38:51.732Z,9.47
2018-10-05T21:41:19.958Z,9.40
2018-10-05T21:43:48.759Z,10.17
2018-10-05T21:46:17.066Z,9.63
2018-10-05T21:48:45.332Z,10.40
2018-10-05T21:51:13.573Z,9.70
2018-10-05T21:53:41.909Z,10.07
2018-10-05T21:56:10.207Z,9.67
2018-10-05T21:58:38.479Z,10.30
2018-10-05T22:01:06.741Z,8.80
2018-10-05T22:03:35.005Z,9.63
2018-10-05T22:06:03.237Z,8.57
2018-10-05T22:08:31.482Z,8.67
2018-10-05T22:10:59.755Z,10.53
2018-10-05T22:13:28.101Z,7.80
2018-10-05T22:15:56.327Z,9.10
2018-10-05T22:18:24.608Z,8.03
2018-10-05T22:20:52.853Z,8.07
2018-10-05T22:23:21.059Z,8.47
2018-10-05T22:25:49.306Z,8.83
2018-10-05T22:28:17.556Z,9.30
2018-10-05T22:30:45.916Z,8.20
2018-10-05T22:33:14.156Z,8.30
2018-10-05T22:38:17.012Z,9.07
2018-10-05T22:40:45.255Z,9.60
2018-10-05T22:43:13.484Z,9.20
2018-10-05T22:45:41.741Z,8.70
2018-10-05T22:48:09.978Z,9.43
2018-10-05T22:50:38.250Z,9.90
2018-10-05T22:53:06.506Z,9.40
2018-10-05T22:55:34.737Z,8.87
2018-10-05T22:58:02.995Z,9.10
2018-10-05T23:00:31.240Z,9.37
2018-10-05T23:02:59.502Z,8.23
2018-10-05T23:05:27.904Z,9.63
2018-10-05T23:07:56.158Z,8.93
2018-10-05T23:10:24.404Z,9.03
2018-10-05T23:12:52.654Z,9.90
2018-10-05T23:15:20.904Z,9.30
2018-10-05T23:17:49.143Z,9.70
2018-10-05T23:20:17.406Z,10.40
2018-10-05T23:22:45.612Z,9.97
2018-10-05T23:25:13.860Z,10.33
2018-10-05T23:27:42.113Z,11.07
2018-10-05T23:30:10.327Z,10.17
2018-10-05T23:32:38.569Z,9.77
2018-10-05T23:35:07.031Z,9.57
2018-10-05T23:37:35.282Z,8.73
2018-10-05T23:40:03.571Z,7.97
2018-10-05T23:42:31.887Z,9.43
2018-10-05T23:45:00.532Z,9.43
2018-10-05T23:47:28.821Z,8.63
2018-10-05T23:49:57.068Z,9.03
2018-10-05T23:52:39.361Z,9.37
2018-10-05T23:55:07.677Z,9.47
2018-10-05T23:57:36.734Z,9.60
